Time;durP1;ratioP1;P1;durP2;ratioP2;P2;SDS_P1;SDS_P2;PMS_P1;PMS_P2;Temp;Humidity;BMP_temperature;BMP_pressure;BME280_temperature;BME280_humidity;BME280_pressure;Samples;Min_cycle;Max_cycle;Signal;HPM_P1;HPM_P2
2022/01/29 00:01:21;;;;;;;17.37;5.20;;;5.80;99.90;;;;;;4994671;28;20439;-47
2022/01/29 00:03:48;;;;;;;24.33;5.30;;;5.80;99.90;;;;;;4995325;28;20467;-46
2022/01/29 00:06:14;;;;;;;23.67;5.23;;;5.80;99.90;;;;;;4995749;28;20416;-47
2022/01/29 00:08:42;;;;;;;17.95;6.00;;;5.70;99.90;;;;;;4994525;28;21001;-46
2022/01/29 00:11:13;;;;;;;21.47;6.10;;;5.90;99.90;;;;;;4977871;28;20213;-46
2022/01/29 00:13:40;;;;;;;21.17;5.10;;;5.90;99.90;;;;;;4974526;28;20549;-47
2022/01/29 00:16:07;;;;;;;15.43;5.17;;;5.80;99.90;;;;;;4974448;28;20560;-46
2022/01/29 00:18:35;;;;;;;27.30;5.80;;;5.90;99.90;;;;;;4974062;28;20477;-46
2022/01/29 00:21:02;;;;;;;18.38;6.95;;;5.90;99.90;;;;;;4974053;28;20414;-47
2022/01/29 00:23:28;;;;;;;18.03;4.43;;;5.90;99.90;;;;;;4974117;28;20197;-46
2022/01/29 00:25:55;;;;;;;17.40;5.80;;;5.90;99.90;;;;;;4974265;28;20415;-45
2022/01/29 00:28:23;;;;;;;20.07;5.07;;;5.80;99.90;;;;;;4991848;28;20462;-46
2022/01/29 00:30:50;;;;;;;17.13;4.07;;;5.80;99.90;;;;;;4993256;28;20898;-46
2022/01/29 00:33:16;;;;;;;15.47;4.10;;;5.80;99.90;;;;;;4993067;28;20481;-46
2022/01/29 00:35:43;;;;;;;19.57;4.33;;;5.80;99.90;;;;;;4993055;28;20420;-45
2022/01/29 00:38:10;;;;;;;24.70;5.60;;;5.80;99.90;;;;;;4993163;28;20549;-45
2022/01/29 00:40:37;;;;;;;15.27;3.97;;;5.80;99.90;;;;;;4992771;28;20195;-46
2022/01/29 00:43:05;;;;;;;14.97;5.27;;;5.80;99.90;;;;;;4993029;28;20447;-46
2022/01/29 00:45:34;;;;;;;13.10;4.43;;;5.80;99.90;;;;;;4993053;28;20541;-46
2022/01/29 00:48:01;;;;;;;19.67;4.30;;;5.80;99.90;;;;;;4992965;28;20435;-46
2022/01/29 00:50:28;;;;;;;21.67;5.00;;;5.80;99.90;;;;;;4992732;28;20202;-46
2022/01/29 00:52:54;;;;;;;17.30;4.50;;;5.80;99.90;;;;;;4993117;28;20247;-46
2022/01/29 00:55:21;;;;;;;17.50;4.10;;;5.90;99.90;;;;;;4993055;28;20416;-47
2022/01/29 00:57:48;;;;;;;26.38;4.38;;;5.80;99.90;;;;;;4992813;28;20436;-46
2022/01/29 01:00:15;;;;;;;16.40;5.23;;;5.80;99.90;;;;;;4992691;28;20199;-46
2022/01/29 01:02:43;;;;;;;18.00;4.50;;;5.80;99.90;;;;;;4992582;28;20440;-47
2022/01/29 01:05:10;;;;;;;20.03;5.13;;;5.90;99.90;;;;;;4992899;28;20205;-46
2022/01/29 01:07:37;;;;;;;18.13;4.07;;;5.80;99.90;;;;;;4992447;28;20858;-46
2022/01/29 01:10:05;;;;;;;15.63;4.07;;;5.90;99.90;;;;;;4983198;28;20664;-46
2022/01/29 01:12:31;;;;;;;22.53;6.80;;;5.90;99.90;;;;;;4972959;28;20458;-46
2022/01/29 01:14:58;;;;;;;16.42;5.25;;;5.80;99.90;;;;;;4973039;28;20765;-46
2022/01/29 01:17:25;;;;;;;21.80;5.93;;;5.80;99.90;;;;;;4972530;28;20230;-46
2022/01/29 01:19:53;;;;;;;16.97;5.47;;;5.80;99.90;;;;;;4972383;28;20450;-46
2022/01/29 01:22:21;;;;;;;20.55;4.82;;;5.80;99.90;;;;;;4972934;28;20446;-46
2022/01/29 01:24:48;;;;;;;16.40;3.80;;;5.80;99.90;;;;;;4972786;28;20646;-45
2022/01/29 01:27:15;;;;;;;25.33;6.37;;;5.80;99.90;;;;;;4981992;28;20412;-46
2022/01/29 01:29:41;;;;;;;19.05;4.55;;;5.80;99.90;;;;;;4991628;28;20441;-45
2022/01/29 01:32:11;;;;;;;17.40;4.40;;;5.80;99.90;;;;;;4991993;28;20242;-46
2022/01/29 01:34:41;;;;;;;16.08;5.25;;;5.80;99.90;;;;;;4991342;28;20525;-46
2022/01/29 01:37:15;;;;;;;19.63;6.45;;;5.80;99.90;;;;;;4991771;28;20675;-47
2022/01/29 01:39:42;;;;;;;19.90;5.57;;;5.80;99.90;;;;;;4991541;28;20204;-47
2022/01/29 01:42:09;;;;;;;22.13;5.18;;;5.80;99.90;;;;;;4991565;28;20468;-45
2022/01/29 01:44:37;;;;;;;17.55;4.65;;;5.80;99.90;;;;;;4991660;28;20198;-45
2022/01/29 01:47:04;;;;;;;18.27;5.15;;;5.70;99.90;;;;;;4991588;28;20249;-47
2022/01/29 01:49:31;;;;;;;19.33;4.80;;;5.80;99.90;;;;;;4991499;28;20193;-47
2022/01/29 01:51:58;;;;;;;16.80;5.20;;;5.80;99.90;;;;;;4991703;28;20535;-46
2022/01/29 01:54:26;;;;;;;15.73;3.60;;;5.60;99.90;;;;;;4991712;28;20485;-46
2022/01/29 01:56:53;;;;;;;12.47;4.50;;;5.80;99.90;;;;;;4991756;28;20976;-47
2022/01/29 01:59:19;;;;;;;16.13;6.23;;;5.80;99.90;;;;;;4991656;28;20454;-46
2022/01/29 02:01:46;;;;;;;16.20;5.30;;;5.80;99.90;;;;;;4991550;28;20446;-45
2022/01/29 02:04:13;;;;;;;17.70;4.57;;;5.90;99.90;;;;;;4991759;28;20443;-46
2022/01/29 02:06:40;;;;;;;18.47;4.93;;;5.80;99.90;;;;;;4991574;28;20409;-47
2022/01/29 02:09:06;;;;;;;15.97;4.20;;;5.80;99.90;;;;;;4989359;28;20998;-45
2022/01/29 02:11:38;;;;;;;17.20;4.77;;;5.80;99.90;;;;;;4972274;28;20421;-46
2022/01/29 02:14:04;;;;;;;20.37;4.90;;;5.80;99.90;;;;;;4972148;28;20490;-45
2022/01/29 02:16:32;;;;;;;18.87;5.40;;;5.80;99.90;;;;;;4971992;28;20421;-46
2022/01/29 02:18:58;;;;;;;18.00;5.37;;;5.80;99.90;;;;;;4971727;28;20507;-45
2022/01/29 02:21:28;;;;;;;18.17;4.90;;;5.70;99.90;;;;;;4973962;28;20469;-47
2022/01/29 02:23:55;;;;;;;19.47;5.00;;;5.70;99.90;;;;;;4974013;28;20438;-45
2022/01/29 02:26:21;;;;;;;12.50;4.07;;;5.70;99.90;;;;;;4976095;28;20446;-46
2022/01/29 02:28:48;;;;;;;12.20;4.50;;;5.60;99.90;;;;;;4992876;28;20429;-47
2022/01/29 02:31:14;;;;;;;15.20;5.03;;;5.70;99.90;;;;;;4992819;28;20437;-45
2022/01/29 02:33:41;;;;;;;17.03;6.00;;;5.70;99.90;;;;;;4992075;28;20476;-46
2022/01/29 02:36:08;;;;;;;21.13;5.07;;;5.70;99.90;;;;;;4991846;28;20413;-46
2022/01/29 02:38:36;;;;;;;18.87;4.60;;;5.70;99.90;;;;;;4991046;28;20516;-46
2022/01/29 02:41:05;;;;;;;19.73;5.20;;;5.50;99.90;;;;;;4991691;28;20416;-46
2022/01/29 02:43:37;;;;;;;22.47;5.67;;;5.70;99.90;;;;;;4991745;28;20950;-47
2022/01/29 02:46:08;;;;;;;11.80;4.63;;;5.70;99.90;;;;;;4993841;28;20416;-47
2022/01/29 02:48:35;;;;;;;16.77;5.10;;;5.70;99.90;;;;;;4994877;28;20939;-45
2022/01/29 02:51:01;;;;;;;16.87;4.40;;;5.70;99.90;;;;;;4995099;28;20882;-45
2022/01/29 02:53:30;;;;;;;16.03;4.60;;;5.70;99.90;;;;;;4995130;28;20489;-46
2022/01/29 02:55:57;;;;;;;11.20;3.50;;;5.70;99.90;;;;;;4995348;28;20417;-46
2022/01/29 02:58:24;;;;;;;18.20;5.30;;;5.70;99.90;;;;;;4994887;28;20463;-46
2022/01/29 03:00:51;;;;;;;21.33;5.80;;;5.70;99.90;;;;;;4995253;28;20806;-47
2022/01/29 03:03:18;;;;;;;24.53;6.20;;;5.70;99.90;;;;;;4994798;28;20943;-47
2022/01/29 03:05:44;;;;;;;15.07;4.67;;;5.70;99.90;;;;;;4994877;28;20424;-46
2022/01/29 03:08:11;;;;;;;25.10;5.20;;;5.70;99.90;;;;;;4995030;28;20804;-46
2022/01/29 03:10:38;;;;;;;22.53;5.20;;;5.70;99.90;;;;;;4981309;28;20426;-45
2022/01/29 03:13:06;;;;;;;17.40;4.90;;;5.60;99.90;;;;;;4975666;28;20498;-46
2022/01/29 03:15:32;;;;;;;22.17;4.97;;;5.70;99.90;;;;;;4976049;28;20431;-46
2022/01/29 03:17:59;;;;;;;17.60;5.03;;;5.70;99.90;;;;;;4975730;28;20475;-45
2022/01/29 03:20:26;;;;;;;15.03;4.53;;;5.60;99.90;;;;;;4976182;28;20423;-47
2022/01/29 03:22:53;;;;;;;19.17;5.87;;;5.60;99.90;;;;;;4976531;28;20422;-46
2022/01/29 03:25:19;;;;;;;28.10;6.40;;;5.60;99.90;;;;;;4976262;28;20454;-47
2022/01/29 03:27:46;;;;;;;11.70;5.40;;;5.60;99.90;;;;;;4989496;28;20440;-46
2022/01/29 03:30:14;;;;;;;17.80;5.77;;;5.40;99.90;;;;;;4995235;28;20456;-47
2022/01/29 03:32:41;;;;;;;14.53;5.17;;;5.60;99.90;;;;;;4994633;28;20449;-46
2022/01/29 03:35:09;;;;;;;25.23;6.33;;;5.60;99.90;;;;;;4994561;28;20890;-45
2022/01/29 03:37:35;;;;;;;13.67;5.27;;;5.60;99.90;;;;;;4994185;28;20463;-46
2022/01/29 03:40:05;;;;;;;26.13;5.50;;;5.60;99.90;;;;;;4994020;28;20428;-45
2022/01/29 03:42:37;;;;;;;16.90;5.33;;;5.60;99.90;;;;;;4994146;28;20534;-46
2022/01/29 03:45:06;;;;;;;13.17;4.60;;;5.60;99.90;;;;;;4993891;28;20417;-46
2022/01/29 03:47:35;;;;;;;14.50;5.73;;;5.60;99.90;;;;;;4993751;28;20962;-44
2022/01/29 03:50:02;;;;;;;19.70;5.73;;;5.60;99.90;;;;;;4993622;28;20438;-46
2022/01/29 03:52:28;;;;;;;13.80;4.80;;;5.60;99.90;;;;;;4994193;28;20434;-46
2022/01/29 03:54:55;;;;;;;20.17;6.30;;;5.60;99.90;;;;;;4993685;28;20482;-44
2022/01/29 03:57:21;;;;;;;18.77;5.47;;;5.50;99.90;;;;;;4993340;28;20971;-46
2022/01/29 03:59:48;;;;;;;19.07;5.20;;;5.60;99.90;;;;;;4991781;28;20565;-45
2022/01/29 04:02:14;;;;;;;13.10;5.67;;;5.60;99.90;;;;;;4993585;28;20430;-46
2022/01/29 04:04:42;;;;;;;23.40;6.23;;;5.60;99.90;;;;;;4993858;28;20633;-45
2022/01/29 04:07:11;;;;;;;13.90;4.97;;;5.60;99.90;;;;;;4993881;28;20504;-46
2022/01/29 04:09:39;;;;;;;19.93;7.20;;;5.60;99.90;;;;;;4989115;28;20422;-46
2022/01/29 04:12:06;;;;;;;17.13;6.07;;;5.60;99.90;;;;;;4974463;28;20490;-46
2022/01/29 04:14:37;;;;;;;24.57;7.80;;;5.60;99.90;;;;;;4974160;28;20479;-46
2022/01/29 04:17:04;;;;;;;25.10;7.20;;;5.60;99.90;;;;;;4973867;28;20424;-46
2022/01/29 04:19:31;;;;;;;12.30;7.70;;;5.60;99.90;;;;;;5004810;23;20516;-45
2022/01/29 04:21:59;;;;;;;17.90;7.23;;;5.60;99.90;;;;;;4994420;28;20419;-47
2022/01/29 04:24:26;;;;;;;20.27;7.40;;;5.60;99.90;;;;;;4994532;28;20444;-45
2022/01/29 04:26:52;;;;;;;19.70;7.47;;;5.60;99.90;;;;;;4994255;28;20417;-45
2022/01/29 04:29:20;;;;;;;21.23;7.23;;;5.50;99.90;;;;;;4993986;28;20458;-45
2022/01/29 04:31:59;;;;;;;24.00;7.27;;;5.50;99.90;;;;;;4994395;28;20442;-45
2022/01/29 04:34:26;;;;;;;19.97;7.73;;;5.50;99.90;;;;;;4994320;28;20485;-45
2022/01/29 04:36:53;;;;;;;18.87;8.00;;;5.50;99.90;;;;;;4994036;28;20433;-45
2022/01/29 04:39:21;;;;;;;20.73;7.90;;;5.50;99.90;;;;;;4993648;28;20462;-47
2022/01/29 04:41:47;;;;;;;26.33;8.70;;;5.40;99.90;;;;;;4994001;28;20421;-45
2022/01/29 04:44:14;;;;;;;22.97;8.57;;;5.50;99.90;;;;;;4993941;28;20913;-45
2022/01/29 04:46:41;;;;;;;26.77;8.93;;;5.50;99.90;;;;;;4994133;28;20442;-45
2022/01/29 04:49:07;;;;;;;18.37;9.97;;;5.50;99.90;;;;;;4993456;28;20512;-45
2022/01/29 04:51:34;;;;;;;20.70;9.03;;;5.50;99.90;;;;;;4994098;28;20412;-45
2022/01/29 04:54:00;;;;;;;18.90;8.40;;;5.50;99.90;;;;;;4993920;28;20453;-45
2022/01/29 04:56:28;;;;;;;20.33;10.60;;;5.50;99.90;;;;;;4993914;28;20468;-45
2022/01/29 04:58:55;;;;;;;19.23;9.00;;;5.50;99.90;;;;;;4993684;28;20453;-45
2022/01/29 05:01:21;;;;;;;19.70;9.00;;;5.50;99.90;;;;;;4994211;28;20430;-45
2022/01/29 05:03:48;;;;;;;16.37;9.00;;;5.50;99.90;;;;;;4994178;28;20981;-45
2022/01/29 05:06:15;;;;;;;22.10;10.23;;;5.50;99.90;;;;;;4993719;28;21005;-45
2022/01/29 05:08:41;;;;;;;22.23;8.93;;;5.50;99.90;;;;;;4992277;28;20463;-45
2022/01/29 05:11:09;;;;;;;24.40;10.10;;;5.50;99.90;;;;;;4976494;28;20450;-45
2022/01/29 05:13:39;;;;;;;20.93;9.30;;;5.50;99.90;;;;;;4974673;28;20493;-45
2022/01/29 05:16:27;;;;;;;19.37;11.10;;;5.50;99.90;;;;;;4974289;28;20489;-45
2022/01/29 05:27:08;;;;;;;19.33;9.80;;;5.50;99.90;;;;;;4982968;28;20835;-45
2022/01/29 05:29:37;;;;;;;29.07;11.13;;;5.50;99.90;;;;;;4994346;28;20991;-45
2022/01/29 05:32:05;;;;;;;16.03;9.37;;;5.50;99.90;;;;;;4994474;28;20775;-45
2022/01/29 05:34:32;;;;;;;19.20;9.70;;;5.40;99.90;;;;;;4993814;28;20484;-46
2022/01/29 05:36:59;;;;;;;21.63;9.50;;;5.50;99.90;;;;;;4993447;28;20410;-46
2022/01/29 05:39:26;;;;;;;15.97;9.43;;;5.50;99.90;;;;;;4993094;28;20550;-46
2022/01/29 05:41:53;;;;;;;23.73;10.30;;;5.50;99.90;;;;;;4992967;28;20437;-46
2022/01/29 05:44:20;;;;;;;17.50;9.57;;;5.50;99.90;;;;;;4992699;28;20445;-46
2022/01/29 05:46:48;;;;;;;25.17;11.07;;;5.50;99.90;;;;;;4993242;28;20797;-46
2022/01/29 05:49:15;;;;;;;22.33;11.00;;;5.50;99.90;;;;;;4992490;28;20793;-46
2022/01/29 05:51:41;;;;;;;24.60;11.50;;;5.50;99.90;;;;;;4992859;28;20451;-46
2022/01/29 05:54:08;;;;;;;26.37;10.87;;;5.50;99.90;;;;;;4992636;28;20484;-46
2022/01/29 05:56:35;;;;;;;19.97;9.60;;;5.50;99.90;;;;;;4992667;28;20792;-46
2022/01/29 05:59:01;;;;;;;19.90;11.00;;;5.50;99.90;;;;;;4992229;28;20465;-46
2022/01/29 06:01:28;;;;;;;22.17;10.30;;;5.50;99.90;;;;;;4993043;28;20901;-46
2022/01/29 06:03:56;;;;;;;22.77;11.30;;;5.50;99.90;;;;;;4992611;28;20408;-46
2022/01/29 06:06:22;;;;;;;26.87;12.60;;;5.50;99.90;;;;;;4993009;28;20419;-46
2022/01/29 06:08:49;;;;;;;25.33;10.67;;;5.50;99.90;;;;;;4992044;28;20438;-46
2022/01/29 06:11:17;;;;;;;18.47;10.27;;;5.50;99.90;;;;;;4974488;28;20465;-47
2022/01/29 06:13:43;;;;;;;17.03;9.90;;;5.50;99.90;;;;;;4973095;28;20808;-45
2022/01/29 06:16:11;;;;;;;16.13;10.10;;;5.30;99.90;;;;;;4973070;28;20431;-45
2022/01/29 06:18:38;;;;;;;16.77;10.10;;;5.50;99.90;;;;;;4972806;28;20902;-45
2022/01/29 06:21:08;;;;;;;17.13;10.10;;;5.50;99.90;;;;;;4973104;28;20421;-46
2022/01/29 06:23:37;;;;;;;19.53;10.60;;;5.50;99.90;;;;;;4973349;28;20444;-47
2022/01/29 06:26:05;;;;;;;22.73;10.70;;;5.50;99.90;;;;;;4973135;28;20440;-46
2022/01/29 06:28:33;;;;;;;16.80;9.83;;;5.50;99.90;;;;;;4991662;28;20481;-47
2022/01/29 06:31:00;;;;;;;19.37;10.17;;;5.30;99.90;;;;;;4992286;28;20410;-47
2022/01/29 06:33:26;;;;;;;19.83;11.20;;;5.50;99.90;;;;;;4992703;28;20448;-46
2022/01/29 06:35:53;;;;;;;18.57;9.77;;;5.50;99.90;;;;;;4992308;28;20548;-45
2022/01/29 06:38:21;;;;;;;21.33;11.90;;;5.50;99.90;;;;;;4992303;28;20433;-45
2022/01/29 06:40:48;;;;;;;19.47;11.50;;;5.50;99.90;;;;;;4991935;28;20458;-45
2022/01/29 06:43:15;;;;;;;25.17;11.30;;;5.50;99.90;;;;;;4992154;28;20458;-45
2022/01/29 06:45:45;;;;;;;18.63;10.37;;;5.60;99.90;;;;;;4992155;28;20516;-46
2022/01/29 06:48:12;;;;;;;21.90;12.77;;;5.50;99.90;;;;;;4992011;28;20936;-47
2022/01/29 06:50:40;;;;;;;16.33;10.43;;;5.60;99.90;;;;;;4991768;28;21054;-46
2022/01/29 06:53:07;;;;;;;19.27;11.37;;;5.60;99.90;;;;;;4992325;28;20434;-47
2022/01/29 06:55:35;;;;;;;15.70;11.10;;;5.60;99.90;;;;;;4992050;28;20457;-47
2022/01/29 06:58:02;;;;;;;20.40;12.13;;;5.60;99.90;;;;;;4991980;28;20444;-46
2022/01/29 07:00:29;;;;;;;22.40;12.00;;;5.60;99.90;;;;;;4991777;28;20434;-47
2022/01/29 07:02:55;;;;;;;23.53;12.50;;;5.50;99.90;;;;;;4991911;28;20990;-46
2022/01/29 07:05:22;;;;;;;16.20;10.63;;;5.60;99.90;;;;;;4992131;28;20434;-46
2022/01/29 07:07:49;;;;;;;13.40;10.30;;;5.60;99.90;;;;;;4991909;28;20440;-46
2022/01/29 07:10:16;;;;;;;18.67;10.97;;;5.60;99.90;;;;;;4971848;28;20919;-47
2022/01/29 07:12:44;;;;;;;19.00;12.03;;;5.60;99.90;;;;;;4953360;29;20443;-46
2022/01/29 07:15:12;;;;;;;19.53;10.87;;;5.60;99.90;;;;;;4953375;29;21034;-47
2022/01/29 07:17:39;;;;;;;17.37;10.47;;;5.60;99.90;;;;;;4953241;29;20418;-47
2022/01/29 07:20:07;;;;;;;15.57;10.73;;;5.60;99.90;;;;;;4953059;29;20439;-47
2022/01/29 07:22:33;;;;;;;22.50;12.90;;;5.70;99.90;;;;;;4953106;29;20436;-47
2022/01/29 07:25:00;;;;;;;18.50;10.77;;;5.70;99.90;;;;;;4953267;29;20415;-46
2022/01/29 07:27:27;;;;;;;27.10;12.73;;;5.70;99.90;;;;;;4973568;28;20454;-46
2022/01/29 07:29:55;;;;;;;24.27;12.73;;;5.70;99.90;;;;;;4991424;28;20446;-46
2022/01/29 07:32:21;;;;;;;21.23;12.10;;;5.70;99.90;;;;;;4994780;28;21002;-46
2022/01/29 07:34:48;;;;;;;13.97;11.30;;;5.70;99.90;;;;;;4995638;28;20462;-46
2022/01/29 07:37:14;;;;;;;19.20;11.77;;;5.70;99.90;;;;;;4995881;28;20487;-46
2022/01/29 07:39:41;;;;;;;22.63;12.47;;;5.70;99.90;;;;;;4995535;28;20996;-46
2022/01/29 07:42:08;;;;;;;17.27;11.63;;;5.70;99.90;;;;;;4995345;28;20520;-46
2022/01/29 07:44:35;;;;;;;16.27;11.73;;;5.70;99.90;;;;;;4977743;28;20428;-46
2022/01/29 07:47:04;;;;;;;15.47;11.67;;;5.70;99.90;;;;;;4995205;28;20438;-46
2022/01/29 07:49:30;;;;;;;18.43;13.00;;;5.80;99.90;;;;;;4994599;28;20468;-46
2022/01/29 07:51:57;;;;;;;17.10;11.77;;;5.80;99.90;;;;;;4995301;28;20441;-46
2022/01/29 07:54:24;;;;;;;20.50;12.07;;;5.80;99.90;;;;;;4995263;28;20449;-46
2022/01/29 07:56:50;;;;;;;18.17;12.00;;;5.80;99.90;;;;;;4994906;28;20449;-45
2022/01/29 07:59:17;;;;;;;15.53;11.30;;;5.90;99.90;;;;;;4994603;28;20463;-47
2022/01/29 08:01:43;;;;;;;18.43;11.90;;;5.90;99.90;;;;;;4994723;28;20859;-46
2022/01/29 08:04:11;;;;;;;15.73;11.90;;;5.90;99.90;;;;;;4995134;28;20439;-46
2022/01/29 08:06:38;;;;;;;18.83;12.00;;;5.90;99.90;;;;;;4994961;28;20412;-46
2022/01/29 08:09:05;;;;;;;16.60;12.27;;;5.90;99.90;;;;;;4994033;28;20967;-45
2022/01/29 08:11:31;;;;;;;17.07;12.97;;;5.90;99.90;;;;;;4975487;28;20439;-45
2022/01/29 08:13:58;;;;;;;19.17;12.70;;;5.90;99.90;;;;;;4975300;28;20809;-47
2022/01/29 08:16:24;;;;;;;17.90;12.73;;;6.00;99.90;;;;;;4975052;28;20483;-46
2022/01/29 08:18:51;;;;;;;15.90;11.43;;;5.90;99.90;;;;;;4974413;28;20489;-48
2022/01/29 08:21:19;;;;;;;17.83;11.73;;;6.00;99.90;;;;;;4974947;28;20445;-46
2022/01/29 08:23:46;;;;;;;15.20;11.50;;;6.00;99.90;;;;;;4975154;28;20442;-46
2022/01/29 08:26:13;;;;;;;16.20;12.37;;;6.00;99.90;;;;;;4975100;28;20933;-46
2022/01/29 08:28:41;;;;;;;13.83;11.90;;;6.00;99.90;;;;;;4993886;28;20632;-46
2022/01/29 08:31:07;;;;;;;15.73;10.73;;;6.00;99.90;;;;;;4994144;28;20417;-46
2022/01/29 08:33:35;;;;;;;14.67;11.93;;;6.00;99.90;;;;;;4994144;28;20439;-47
2022/01/29 08:36:03;;;;;;;18.10;11.97;;;6.00;99.90;;;;;;4993895;28;20553;-47
2022/01/29 08:38:31;;;;;;;17.80;12.37;;;6.00;99.90;;;;;;4993736;28;20836;-47
2022/01/29 08:40:58;;;;;;;14.40;11.90;;;6.00;99.90;;;;;;4993817;28;20418;-46
2022/01/29 08:43:25;;;;;;;20.23;11.43;;;6.00;99.90;;;;;;4992931;28;20506;-46
2022/01/29 08:45:53;;;;;;;14.77;11.57;;;6.10;99.90;;;;;;4993898;28;20429;-46
2022/01/29 08:48:20;;;;;;;14.07;11.30;;;6.10;99.90;;;;;;4993959;28;20467;-46
2022/01/29 08:50:47;;;;;;;17.90;11.80;;;6.10;99.90;;;;;;4993620;28;20439;-46
2022/01/29 08:53:15;;;;;;;19.73;13.53;;;6.10;99.90;;;;;;4994122;28;20939;-47
2022/01/29 08:55:43;;;;;;;22.37;14.10;;;6.10;99.90;;;;;;4993718;28;20474;-46
2022/01/29 08:58:09;;;;;;;30.00;13.63;;;6.20;99.90;;;;;;4993860;28;20459;-46
2022/01/29 09:00:36;;;;;;;17.40;12.53;;;6.20;99.90;;;;;;4993422;28;20439;-46
2022/01/29 09:03:03;;;;;;;19.03;11.70;;;6.20;99.90;;;;;;4993581;28;20418;-46
2022/01/29 09:05:30;;;;;;;20.73;13.77;;;6.20;99.90;;;;;;4993458;28;21002;-46
2022/01/29 09:07:58;;;;;;;16.70;12.20;;;6.30;99.90;;;;;;4993666;28;20493;-46
2022/01/29 09:10:26;;;;;;;19.93;12.80;;;6.20;99.90;;;;;;4982502;28;20464;-46
2022/01/29 09:12:54;;;;;;;13.67;10.60;;;6.20;99.90;;;;;;4974413;28;20532;-47
2022/01/29 09:15:21;;;;;;;14.90;12.67;;;6.20;99.90;;;;;;4974144;28;20567;-46
2022/01/29 09:17:47;;;;;;;16.70;12.10;;;6.30;99.90;;;;;;4973906;28;20997;-46
2022/01/29 09:20:15;;;;;;;19.63;14.03;;;6.30;99.90;;;;;;4956562;28;20438;-47
2022/01/29 09:22:42;;;;;;;16.33;11.87;;;6.30;99.90;;;;;;4973919;28;20443;-46
2022/01/29 09:25:09;;;;;;;18.67;13.27;;;6.40;99.90;;;;;;4973982;28;20433;-47
2022/01/29 09:27:35;;;;;;;23.30;13.80;;;6.40;99.90;;;;;;4985003;28;20451;-46
2022/01/29 09:30:04;;;;;;;17.27;12.60;;;6.40;99.90;;;;;;4992959;28;20466;-47
2022/01/29 09:32:31;;;;;;;16.67;12.63;;;6.50;99.90;;;;;;4993242;28;20432;-46
2022/01/29 09:34:57;;;;;;;19.23;12.80;;;6.50;99.90;;;;;;4993059;28;20471;-46
2022/01/29 09:37:24;;;;;;;17.67;12.53;;;6.50;99.90;;;;;;4992850;28;20497;-46
2022/01/29 09:39:50;;;;;;;16.50;12.40;;;6.60;99.90;;;;;;4992740;28;20899;-45
2022/01/29 09:42:18;;;;;;;20.40;12.47;;;6.60;99.90;;;;;;4992772;28;20441;-47
2022/01/29 09:44:48;;;;;;;17.43;11.53;;;6.70;99.90;;;;;;4992661;28;20442;-46
2022/01/29 09:47:17;;;;;;;21.30;13.80;;;6.70;99.90;;;;;;4992852;28;20937;-47
2022/01/29 09:49:45;;;;;;;23.47;13.10;;;6.70;99.90;;;;;;4992256;28;20441;-46
2022/01/29 09:52:11;;;;;;;18.37;12.93;;;6.70;99.90;;;;;;4992635;28;20858;-46
2022/01/29 09:54:38;;;;;;;17.10;13.67;;;6.70;99.90;;;;;;4992480;28;20423;-46
2022/01/29 09:57:05;;;;;;;18.90;14.77;;;6.70;99.90;;;;;;4992219;28;20483;-46
2022/01/29 09:59:32;;;;;;;21.87;15.33;;;6.80;99.90;;;;;;4991926;28;20541;-46
2022/01/29 10:01:58;;;;;;;23.50;15.70;;;6.80;99.90;;;;;;4992252;28;20411;-48
2022/01/29 10:04:29;;;;;;;23.60;17.13;;;6.80;99.90;;;;;;4992883;28;20954;-46
2022/01/29 10:07:16;;;;;;;26.40;15.97;;;6.90;99.90;;;;;;4992834;28;20991;-46
2022/01/29 10:09:43;;;;;;;21.10;16.20;;;6.90;99.90;;;;;;4986518;28;20450;-46
2022/01/29 10:12:22;;;;;;;21.93;16.10;;;7.00;99.90;;;;;;4973150;28;20450;-46
2022/01/29 10:14:56;;;;;;;19.30;15.40;;;7.00;99.90;;;;;;4973091;28;20434;-47
2022/01/29 10:17:46;;;;;;;24.57;16.53;;;7.00;99.90;;;;;;4973285;28;20439;-46
2022/01/29 10:20:19;;;;;;;20.77;15.13;;;7.10;99.90;;;;;;4995243;23;20997;-51
2022/01/29 10:22:48;;;;;;;23.40;16.90;;;7.20;99.90;;;;;;4972381;28;20811;-52
2022/01/29 10:25:18;;;;;;;25.50;15.93;;;7.20;99.90;;;;;;4972558;28;20414;-52
2022/01/29 10:28:11;;;;;;;24.47;17.53;;;7.30;99.90;;;;;;4972971;28;20416;-52
2022/01/29 10:30:47;;;;;;;22.50;16.50;;;7.30;99.90;;;;;;4953041;29;20527;-52
2022/01/29 10:33:19;;;;;;;18.87;14.97;;;7.30;99.90;;;;;;4953281;29;20414;-52
2022/01/29 10:35:48;;;;;;;22.80;17.10;;;7.40;99.90;;;;;;4952958;29;20489;-52
2022/01/29 10:38:22;;;;;;;25.73;15.53;;;7.50;99.90;;;;;;4953723;29;20413;-51
2022/01/29 10:41:10;;;;;;;24.30;15.97;;;7.50;99.90;;;;;;4952918;29;20936;-52
2022/01/29 10:43:37;;;;;;;22.70;15.33;;;7.50;99.90;;;;;;4953259;29;20506;-50
2022/01/29 10:46:04;;;;;;;19.80;14.10;;;7.50;99.90;;;;;;4969752;28;20756;-51
2022/01/29 10:48:43;;;;;;;20.67;15.90;;;7.50;99.90;;;;;;4971515;28;20836;-51
2022/01/29 10:51:12;;;;;;;20.70;15.30;;;7.60;99.90;;;;;;4972412;28;20874;-50
2022/01/29 10:53:39;;;;;;;19.60;16.10;;;7.60;99.90;;;;;;4972120;28;20448;-50
2022/01/29 10:56:06;;;;;;;20.80;15.90;;;7.60;99.90;;;;;;4971881;28;20495;-50
2022/01/29 10:58:39;;;;;;;20.60;15.77;;;7.60;99.90;;;;;;4971446;28;20980;-50
2022/01/29 11:01:17;;;;;;;19.93;15.90;;;7.70;99.90;;;;;;4971929;28;20452;-51
2022/01/29 11:03:45;;;;;;;21.67;16.53;;;7.70;99.90;;;;;;4972104;28;20521;-51
2022/01/29 11:06:18;;;;;;;21.60;15.40;;;7.70;99.90;;;;;;4972876;28;20444;-51
2022/01/29 11:08:45;;;;;;;23.13;15.83;;;7.80;99.90;;;;;;4973697;28;20485;-51
2022/01/29 11:11:13;;;;;;;22.47;15.60;;;7.80;99.90;;;;;;4958291;28;20455;-51
2022/01/29 11:13:41;;;;;;;17.77;14.50;;;7.80;99.90;;;;;;4956490;29;20446;-51
2022/01/29 11:16:08;;;;;;;17.17;14.03;;;7.90;99.90;;;;;;4956207;29;20457;-51
2022/01/29 11:18:35;;;;;;;19.73;14.63;;;7.90;99.90;;;;;;4955807;28;20485;-51
2022/01/29 11:21:02;;;;;;;19.37;14.20;;;7.90;99.90;;;;;;4955901;29;20417;-51
2022/01/29 11:23:32;;;;;;;14.40;12.80;;;7.90;99.90;;;;;;4956238;29;20931;-51
2022/01/29 11:26:00;;;;;;;17.63;13.70;;;7.90;99.90;;;;;;4956240;29;20948;-51
2022/01/29 11:28:28;;;;;;;20.10;14.03;;;8.00;99.90;;;;;;4955331;28;20469;-50
2022/01/29 11:31:20;;;;;;;16.67;13.07;;;8.00;99.90;;;;;;4956670;29;20771;-51
2022/01/29 11:34:21;;;;;;;16.67;11.63;;;8.00;99.90;;;;;;4956128;29;20512;-53
2022/01/29 11:37:07;;;;;;;14.53;12.30;;;8.10;99.90;;;;;;4955321;29;20481;-51
2022/01/29 11:39:36;;;;;;;13.97;12.33;;;8.10;99.90;;;;;;4955349;29;20987;-51
2022/01/29 11:42:31;;;;;;;16.63;12.53;;;8.20;99.90;;;;;;4955576;29;20624;-51
2022/01/29 11:45:19;;;;;;;16.00;11.47;;;8.20;99.90;;;;;;4963266;28;20839;-51
2022/01/29 11:47:48;;;;;;;16.73;12.27;;;8.20;99.90;;;;;;4975056;28;20449;-50
2022/01/29 11:50:45;;;;;;;14.93;12.60;;;8.20;99.90;;;;;;4974270;28;20754;-49
2022/01/29 11:53:12;;;;;;;13.87;12.00;;;8.30;99.90;;;;;;4975061;28;20473;-51
2022/01/29 11:55:43;;;;;;;15.50;13.13;;;8.30;99.90;;;;;;4974917;28;20416;-51
2022/01/29 11:58:31;;;;;;;19.30;13.13;;;8.30;99.90;;;;;;4974723;28;20449;-51
2022/01/29 12:00:59;;;;;;;16.70;12.53;;;8.30;99.90;;;;;;4968326;28;20447;-51
2022/01/29 12:03:51;;;;;;;15.70;12.70;;;8.40;99.90;;;;;;4974715;28;20439;-51
2022/01/29 12:06:22;;;;;;;15.70;13.47;;;8.40;99.90;;;;;;4974475;28;20431;-50
2022/01/29 12:09:33;;;;;;;14.57;11.40;;;8.40;99.90;;;;;;4974007;28;20441;-51
2022/01/29 12:12:32;;;;;;;16.03;13.07;;;8.40;99.90;;;;;;4954966;29;20418;-51
2022/01/29 12:15:38;;;;;;;13.03;11.73;;;8.60;99.90;;;;;;4877500;29;20483;-50
2022/01/29 12:18:20;;;;;;;13.50;11.30;;;8.50;99.90;;;;;;4954939;28;20922;-51
2022/01/29 12:20:47;;;;;;;15.17;11.20;;;8.50;99.90;;;;;;4954291;29;20918;-51
2022/01/29 12:23:14;;;;;;;16.80;11.90;;;8.50;99.90;;;;;;4955064;29;20420;-49
2022/01/29 12:25:41;;;;;;;11.77;10.13;;;8.60;99.90;;;;;;4955113;29;20418;-51
2022/01/29 12:28:10;;;;;;;12.47;10.40;;;8.60;99.90;;;;;;4955052;29;20418;-50
2022/01/29 12:30:39;;;;;;;12.90;11.00;;;8.60;99.90;;;;;;4955006;29;20432;-51
2022/01/29 12:33:07;;;;;;;15.80;10.80;;;8.60;99.90;;;;;;4954978;29;20939;-50
2022/01/29 12:35:36;;;;;;;11.27;10.07;;;8.60;99.90;;;;;;4954570;29;20932;-51
2022/01/29 12:38:04;;;;;;;13.40;9.70;;;8.60;99.90;;;;;;4954713;29;20419;-51
2022/01/29 12:40:36;;;;;;;14.33;11.40;;;8.70;99.90;;;;;;4954555;29;20451;-52
2022/01/29 12:43:10;;;;;;;11.47;9.53;;;8.70;99.90;;;;;;4954543;29;20449;-51
2022/01/29 12:45:39;;;;;;;12.87;9.30;;;8.70;99.90;;;;;;4968151;28;20448;-52
2022/01/29 12:48:07;;;;;;;15.87;12.60;;;8.80;99.90;;;;;;4973685;28;20435;-52
2022/01/29 12:50:34;;;;;;;13.03;10.30;;;8.80;99.90;;;;;;4971799;28;20425;-52
2022/01/29 12:53:08;;;;;;;11.07;8.80;;;8.80;99.90;;;;;;4973691;28;20434;-52
2022/01/29 12:55:35;;;;;;;11.43;8.73;;;8.80;99.90;;;;;;4973482;28;20433;-52
2022/01/29 12:58:02;;;;;;;11.37;9.30;;;8.90;99.90;;;;;;4974012;28;20823;-52